Time;durP1;ratioP1;P1;durP2;ratioP2;P2;SDS_P1;SDS_P2;PMS_P1;PMS_P2;Temp;Humidity;BMP_temperature;BMP_pressure;BME280_temperature;BME280_humidity;BME280_pressure;Samples;Min_cycle;Max_cycle;Signal;HPM_P1;HPM_P2
2023/04/19 00:00:33;;;;;;;13.02;6.45;;;8.40;99.90;;;;;;5095354;28;20043;-69
2023/04/19 00:02:59;;;;;;;11.75;6.60;;;8.40;99.90;;;;;;5113232;28;20044;-69
2023/04/19 00:05:25;;;;;;;11.30;6.43;;;8.30;99.90;;;;;;5108894;28;20036;-69
2023/04/19 00:07:50;;;;;;;9.70;6.07;;;8.30;99.90;;;;;;5093226;28;20123;-69
2023/04/19 00:10:16;;;;;;;10.38;5.45;;;8.30;99.90;;;;;;5110049;28;20085;-69
2023/04/19 00:12:41;;;;;;;11.65;6.32;;;8.20;99.90;;;;;;5110982;28;20039;-69
2023/04/19 00:15:07;;;;;;;10.80;6.10;;;8.20;99.90;;;;;;5111645;28;20043;-69
2023/04/19 00:17:34;;;;;;;11.15;6.55;;;8.20;99.90;;;;;;5129954;27;20118;-69
2023/04/19 00:20:00;;;;;;;10.32;6.50;;;8.10;99.90;;;;;;5096101;28;20040;-69
2023/04/19 00:22:25;;;;;;;11.93;6.72;;;8.10;99.90;;;;;;5111897;28;20031;-69
2023/04/19 00:24:51;;;;;;;11.27;6.40;;;8.10;99.90;;;;;;5112755;28;20118;-69
2023/04/19 00:27:17;;;;;;;10.90;6.25;;;8.00;99.90;;;;;;5110667;28;20140;-69
2023/04/19 00:29:43;;;;;;;10.43;6.10;;;8.00;99.90;;;;;;5112920;28;20496;-69
2023/04/19 00:32:09;;;;;;;10.43;6.60;;;8.10;99.90;;;;;;5100027;28;20055;-69
2023/04/19 00:34:35;;;;;;;10.52;6.47;;;8.00;99.90;;;;;;5091980;28;20134;-69
2023/04/19 00:37:03;;;;;;;10.27;6.78;;;8.00;99.90;;;;;;5095612;28;20127;-69
2023/04/19 00:39:29;;;;;;;10.13;6.40;;;8.00;99.90;;;;;;5092365;28;20047;-69
2023/04/19 00:41:56;;;;;;;10.05;6.50;;;7.90;99.90;;;;;;5092057;28;20119;-69
2023/04/19 00:44:22;;;;;;;11.32;6.80;;;7.90;99.90;;;;;;5075336;28;20040;-69
2023/04/19 00:46:48;;;;;;;10.82;6.70;;;7.90;99.90;;;;;;5091758;28;20032;-69
2023/04/19 00:49:14;;;;;;;10.48;6.88;;;7.90;99.90;;;;;;5092468;28;20040;-70
2023/04/19 00:51:40;;;;;;;11.25;6.80;;;7.90;99.90;;;;;;5102008;28;20123;-69
2023/04/19 00:54:07;;;;;;;11.10;7.03;;;8.00;99.90;;;;;;5110627;28;20067;-69
2023/04/19 00:56:34;;;;;;;11.93;6.57;;;7.90;99.90;;;;;;5077231;28;20156;-69
2023/04/19 00:59:00;;;;;;;11.48;6.60;;;7.90;99.90;;;;;;5092170;28;20044;-69
2023/04/19 01:01:26;;;;;;;11.65;6.93;;;8.00;99.90;;;;;;5099943;28;20051;-69
2023/04/19 01:03:52;;;;;;;10.40;7.03;;;8.00;99.90;;;;;;5112583;28;20036;-69
2023/04/19 01:06:18;;;;;;;10.13;6.50;;;7.90;99.90;;;;;;5103980;28;20121;-69
2023/04/19 01:08:43;;;;;;;11.75;7.82;;;8.00;99.90;;;;;;5098111;28;20078;-69
2023/04/19 01:11:09;;;;;;;11.75;7.88;;;7.90;99.90;;;;;;5104129;28;20036;-69
2023/04/19 01:13:35;;;;;;;13.95;7.38;;;7.90;99.90;;;;;;5107302;28;20036;-69
2023/04/19 01:16:00;;;;;;;12.10;8.07;;;7.80;99.90;;;;;;5098219;28;20047;-69
2023/04/19 01:18:31;;;;;;;13.48;7.63;;;7.80;99.90;;;;;;5098893;28;20036;-69
2023/04/19 01:20:57;;;;;;;14.15;7.88;;;7.80;99.90;;;;;;5102596;28;20039;-70
2023/04/19 01:23:23;;;;;;;12.50;8.02;;;7.80;99.90;;;;;;5102102;28;20071;-69
2023/04/19 01:25:49;;;;;;;11.77;6.88;;;7.70;99.90;;;;;;5095498;28;20487;-70
2023/04/19 01:28:14;;;;;;;13.27;7.95;;;7.70;99.90;;;;;;5098894;28;20036;-70
2023/04/19 01:30:40;;;;;;;12.60;7.53;;;7.70;99.90;;;;;;5098600;28;20105;-69
2023/04/19 01:33:06;;;;;;;12.85;7.20;;;7.70;99.90;;;;;;5115971;28;20065;-69
2023/04/19 01:35:31;;;;;;;13.98;8.25;;;7.70;99.90;;;;;;5116065;28;20480;-70
2023/04/19 01:37:57;;;;;;;12.27;7.47;;;7.80;99.90;;;;;;5098785;28;20071;-70
2023/04/19 01:40:24;;;;;;;14.05;8.35;;;7.80;99.90;;;;;;5098380;28;20043;-70
2023/04/19 01:42:50;;;;;;;12.52;8.73;;;7.80;99.90;;;;;;5118140;28;20040;-69
2023/04/19 01:45:16;;;;;;;14.45;8.30;;;7.80;99.90;;;;;;5118811;28;20043;-70
2023/04/19 01:47:41;;;;;;;14.20;8.40;;;7.80;99.90;;;;;;5081352;28;20040;-70
2023/04/19 01:50:07;;;;;;;13.77;7.85;;;7.90;99.90;;;;;;5098709;28;20032;-69
2023/04/19 01:52:33;;;;;;;13.73;9.27;;;7.90;99.90;;;;;;5115808;28;20031;-70
2023/04/19 01:54:58;;;;;;;14.70;8.55;;;7.80;99.90;;;;;;5101563;28;20043;-69
2023/04/19 01:57:24;;;;;;;13.90;9.18;;;8.00;99.90;;;;;;5100560;28;20174;-70
2023/04/19 01:59:50;;;;;;;15.48;9.80;;;7.80;99.90;;;;;;5098605;28;20039;-69
2023/04/19 02:02:15;;;;;;;14.45;8.90;;;7.80;99.90;;;;;;5098714;28;20414;-70
2023/04/19 02:04:41;;;;;;;14.35;8.27;;;7.80;99.90;;;;;;5098157;28;20118;-70
2023/04/19 02:07:07;;;;;;;13.70;9.13;;;7.80;99.90;;;;;;5115399;28;20079;-69
2023/04/19 02:09:36;;;;;;;17.40;9.13;;;7.80;99.90;;;;;;5113216;28;20027;-70
2023/04/19 02:12:02;;;;;;;14.23;8.85;;;7.80;99.90;;;;;;5118808;28;20054;-69
2023/04/19 02:14:28;;;;;;;12.27;8.00;;;7.80;99.90;;;;;;5118751;28;20051;-69
2023/04/19 02:16:53;;;;;;;16.92;9.15;;;7.70;99.90;;;;;;5115392;28;20043;-70
2023/04/19 02:19:19;;;;;;;14.52;9.05;;;7.80;99.90;;;;;;5095428;28;20557;-70
2023/04/19 02:21:44;;;;;;;13.38;8.93;;;7.70;99.90;;;;;;5095149;28;20043;-70
2023/04/19 02:24:10;;;;;;;13.23;8.98;;;7.70;99.90;;;;;;5094589;28;20097;-70
2023/04/19 02:26:36;;;;;;;16.40;9.73;;;7.70;99.90;;;;;;5110598;28;20044;-70
2023/04/19 02:29:01;;;;;;;15.63;9.70;;;7.60;99.90;;;;;;5113967;28;20511;-70
2023/04/19 02:31:27;;;;;;;13.93;8.30;;;7.60;99.90;;;;;;5098326;28;20036;-70
2023/04/19 02:33:52;;;;;;;16.88;10.10;;;7.50;99.90;;;;;;5115207;28;20185;-70
2023/04/19 02:36:18;;;;;;;13.45;8.52;;;7.60;99.90;;;;;;5093044;28;20043;-70
2023/04/19 02:38:43;;;;;;;14.43;7.53;;;7.60;99.90;;;;;;5124074;27;20040;-70
2023/04/19 02:41:09;;;;;;;12.85;8.40;;;7.50;99.90;;;;;;5098243;28;20092;-69
2023/04/19 02:43:35;;;;;;;14.68;8.85;;;7.50;99.90;;;;;;5091015;28;20047;-70
2023/04/19 02:46:00;;;;;;;14.07;7.95;;;7.50;99.90;;;;;;5094797;28;20124;-70
2023/04/19 02:48:26;;;;;;;14.32;8.88;;;7.50;99.90;;;;;;5107548;28;20047;-70
2023/04/19 02:50:52;;;;;;;13.63;8.85;;;7.40;99.90;;;;;;5095080;28;20039;-70
2023/04/19 02:53:17;;;;;;;13.18;7.82;;;7.40;99.90;;;;;;5113601;28;20039;-69
2023/04/19 02:55:43;;;;;;;13.80;8.05;;;7.40;99.90;;;;;;5112583;28;20410;-70
2023/04/19 02:58:08;;;;;;;12.30;8.35;;;7.30;99.90;;;;;;5097560;28;20048;-70
2023/04/19 03:00:34;;;;;;;14.60;8.18;;;7.30;99.90;;;;;;5111405;28;20063;-69
2023/04/19 03:03:02;;;;;;;11.38;7.32;;;7.30;99.90;;;;;;5094343;28;20101;-70
2023/04/19 03:05:28;;;;;;;12.18;7.22;;;7.30;99.90;;;;;;5093642;28;20475;-70
2023/04/19 03:07:53;;;;;;;11.95;7.60;;;7.30;99.90;;;;;;5076991;28;20127;-70
2023/04/19 03:10:19;;;;;;;13.80;7.57;;;7.20;99.90;;;;;;5104810;28;20060;-70
2023/04/19 03:12:44;;;;;;;12.15;7.68;;;7.10;99.90;;;;;;5093959;28;20461;-70
2023/04/19 03:15:10;;;;;;;12.52;7.40;;;7.10;99.90;;;;;;5093992;28;20512;-70
2023/04/19 03:17:36;;;;;;;10.88;6.82;;;7.10;99.90;;;;;;5093427;28;20475;-70
2023/04/19 03:20:06;;;;;;;12.75;7.00;;;7.10;99.90;;;;;;5094075;28;20173;-70
2023/04/19 03:22:32;;;;;;;13.73;7.40;;;7.00;99.90;;;;;;5093518;28;20102;-70
2023/04/19 03:24:57;;;;;;;11.90;7.22;;;6.90;99.90;;;;;;5093578;28;20047;-70
2023/04/19 03:27:23;;;;;;;23.10;20.95;;;6.90;99.90;;;;;;5093415;28;20032;-70
2023/04/19 03:29:48;;;;;;;12.98;7.05;;;6.90;99.90;;;;;;5099485;28;20422;-70
2023/04/19 03:32:14;;;;;;;12.18;9.65;;;6.90;99.90;;;;;;5081096;28;20174;-70
2023/04/19 03:34:40;;;;;;;13.70;7.25;;;6.80;99.90;;;;;;5093425;28;20036;-70
2023/04/19 03:37:05;;;;;;;14.13;7.35;;;6.80;99.90;;;;;;5089515;28;20040;-70
2023/04/19 03:39:31;;;;;;;11.05;6.78;;;6.80;99.90;;;;;;5096803;28;20096;-69
2023/04/19 03:41:56;;;;;;;13.85;7.00;;;6.80;99.90;;;;;;5091652;28;20067;-70
2023/04/19 03:44:22;;;;;;;13.23;7.28;;;6.70;99.90;;;;;;5093342;28;20403;-69
2023/04/19 03:46:47;;;;;;;12.85;8.27;;;6.60;99.90;;;;;;5120947;27;20071;-69
2023/04/19 03:49:13;;;;;;;12.55;7.40;;;6.60;99.90;;;;;;5096589;28;20092;-70
2023/04/19 03:51:39;;;;;;;11.55;6.93;;;6.60;99.90;;;;;;5086190;28;20040;-69
2023/04/19 03:54:04;;;;;;;14.48;6.80;;;6.50;99.90;;;;;;5093157;28;20040;-70
2023/04/19 03:56:30;;;;;;;13.35;6.75;;;6.50;99.90;;;;;;5109952;28;20055;-69
2023/04/19 03:58:56;;;;;;;11.82;7.25;;;6.60;99.90;;;;;;5113571;28;20039;-70
2023/04/19 04:01:23;;;;;;;10.48;6.20;;;6.40;99.90;;;;;;5088498;28;20036;-70
2023/04/19 04:03:48;;;;;;;14.15;6.68;;;6.50;99.90;;;;;;5093057;28;20067;-70
2023/04/19 04:06:14;;;;;;;11.77;6.18;;;6.40;99.90;;;;;;5092962;28;20495;-69
2023/04/19 04:08:40;;;;;;;9.77;6.13;;;6.40;99.90;;;;;;5092448;28;20031;-69
2023/04/19 04:11:05;;;;;;;12.68;6.20;;;6.40;99.90;;;;;;5092394;28;20040;-69
2023/04/19 04:13:31;;;;;;;9.95;6.03;;;6.40;99.90;;;;;;5092804;28;20043;-69
2023/04/19 04:15:56;;;;;;;11.40;5.90;;;6.50;99.90;;;;;;5092738;28;20051;-69
2023/04/19 04:18:22;;;;;;;11.32;5.50;;;6.50;99.90;;;;;;5092602;28;20076;-69
2023/04/19 04:20:47;;;;;;;11.75;5.68;;;6.40;99.90;;;;;;5092629;28;20044;-69
2023/04/19 04:23:13;;;;;;;9.13;5.53;;;6.40;99.90;;;;;;5098375;28;20082;-69
2023/04/19 04:25:39;;;;;;;10.00;5.65;;;6.50;99.90;;;;;;5093965;28;20035;-69
2023/04/19 04:28:05;;;;;;;10.30;6.13;;;6.40;99.90;;;;;;5095777;28;20036;-70
2023/04/19 04:30:32;;;;;;;11.73;5.95;;;6.40;99.90;;;;;;5111668;28;20464;-69
2023/04/19 04:32:58;;;;;;;13.27;5.85;;;6.40;99.90;;;;;;5109194;28;20119;-69
2023/04/19 04:35:24;;;;;;;12.25;6.55;;;6.30;99.90;;;;;;5091969;28;20226;-69
2023/04/19 04:37:52;;;;;;;8.98;5.15;;;6.30;99.90;;;;;;5092625;28;20373;-69
2023/04/19 04:40:18;;;;;;;9.88;5.72;;;6.20;99.90;;;;;;5092405;28;20076;-70
2023/04/19 04:42:44;;;;;;;9.93;6.05;;;6.20;99.90;;;;;;5091803;28;20471;-69
2023/04/19 04:45:10;;;;;;;10.48;6.05;;;6.20;99.90;;;;;;5092236;28;20097;-69
2023/04/19 04:47:36;;;;;;;11.20;5.50;;;6.20;99.90;;;;;;5092089;28;20040;-69
2023/04/19 04:50:02;;;;;;;10.80;5.50;;;6.20;99.90;;;;;;5092232;28;20040;-69
2023/04/19 04:52:28;;;;;;;11.00;5.88;;;6.10;99.90;;;;;;5105956;28;20062;-69
2023/04/19 04:54:54;;;;;;;10.43;5.93;;;6.20;99.90;;;;;;5102861;28;20515;-69
2023/04/19 04:57:19;;;;;;;10.75;5.60;;;6.10;99.90;;;;;;5092359;28;20507;-70
2023/04/19 04:59:46;;;;;;;10.20;5.72;;;6.10;99.90;;;;;;5075249;28;20454;-69
2023/04/19 05:02:13;;;;;;;10.10;5.40;;;6.20;99.90;;;;;;5091915;28;20407;-69
2023/04/19 05:04:38;;;;;;;10.73;5.22;;;6.20;99.90;;;;;;5091992;28;20137;-69
2023/04/19 05:07:05;;;;;;;12.27;5.72;;;6.20;99.90;;;;;;5092452;28;20442;-69
2023/04/19 05:09:30;;;;;;;11.55;5.82;;;6.10;99.90;;;;;;5092008;28;20028;-69
2023/04/19 05:11:56;;;;;;;12.85;6.07;;;6.20;99.90;;;;;;5091611;28;20074;-70
2023/04/19 05:14:21;;;;;;;11.00;5.60;;;6.20;99.90;;;;;;5108935;28;20488;-69
2023/04/19 05:16:47;;;;;;;9.18;5.43;;;6.20;99.90;;;;;;5091902;28;20035;-69
2023/04/19 05:19:13;;;;;;;10.07;5.68;;;6.20;99.90;;;;;;5092050;28;20376;-69
2023/04/19 05:21:38;;;;;;;9.02;5.32;;;6.20;99.90;;;;;;5092693;28;20097;-70
2023/04/19 05:24:04;;;;;;;8.85;5.20;;;6.20;99.90;;;;;;5091305;28;20491;-69
2023/04/19 05:26:31;;;;;;;11.70;5.07;;;6.10;99.90;;;;;;5110031;28;20035;-69
2023/04/19 05:28:56;;;;;;;9.75;5.32;;;6.20;99.90;;;;;;5094018;28;20035;-69
2023/04/19 05:31:22;;;;;;;11.38;5.28;;;6.20;99.90;;;;;;5093697;28;20031;-69
2023/04/19 05:33:47;;;;;;;10.35;5.10;;;6.20;99.90;;;;;;5102948;28;20086;-69
2023/04/19 05:36:13;;;;;;;11.32;4.72;;;6.10;99.90;;;;;;5095447;28;20043;-69
2023/04/19 05:38:38;;;;;;;11.18;5.35;;;6.30;99.90;;;;;;5095194;28;20499;-70
2023/04/19 05:41:05;;;;;;;8.85;4.78;;;6.30;99.90;;;;;;5102816;28;20089;-69
2023/04/19 05:43:30;;;;;;;9.73;5.25;;;6.30;99.90;;;;;;5102797;28;20036;-69
2023/04/19 05:45:56;;;;;;;9.50;5.38;;;6.30;99.90;;;;;;5095190;28;20540;-69
2023/04/19 05:48:22;;;;;;;9.48;4.70;;;6.40;99.90;;;;;;5077859;28;20053;-69
2023/04/19 05:50:47;;;;;;;10.90;5.38;;;6.50;99.90;;;;;;5099276;28;20035;-70
2023/04/19 05:53:13;;;;;;;9.75;4.97;;;6.40;99.90;;;;;;5099441;28;20384;-69
2023/04/19 05:55:38;;;;;;;9.05;4.82;;;6.50;99.90;;;;;;5092711;28;20196;-69
2023/04/19 05:58:04;;;;;;;9.10;5.07;;;6.60;99.90;;;;;;5095363;28;20129;-69
2023/04/19 06:00:29;;;;;;;8.55;4.38;;;6.60;99.90;;;;;;5095122;28;20035;-69
2023/04/19 06:02:55;;;;;;;9.02;4.28;;;6.70;99.90;;;;;;5093673;28;20044;-69
2023/04/19 06:05:21;;;;;;;9.65;5.00;;;6.70;99.90;;;;;;5094665;28;20058;-69
2023/04/19 06:07:46;;;;;;;10.38;4.82;;;6.80;99.90;;;;;;5093612;28;20089;-69
2023/04/19 06:10:12;;;;;;;7.68;4.22;;;6.80;99.90;;;;;;5103251;28;20046;-69
2023/04/19 06:12:38;;;;;;;8.65;4.45;;;6.90;99.90;;;;;;5107837;28;20036;-69
2023/04/19 06:15:05;;;;;;;8.77;4.75;;;7.00;99.90;;;;;;5115030;28;20042;-69
2023/04/19 06:17:30;;;;;;;10.43;5.13;;;7.10;99.90;;;;;;5114624;28;20096;-69
2023/04/19 06:19:56;;;;;;;9.82;4.43;;;7.10;99.90;;;;;;5090557;28;20040;-69
2023/04/19 06:22:22;;;;;;;9.48;4.47;;;7.30;99.90;;;;;;5113603;27;20031;-69
2023/04/19 06:24:47;;;;;;;9.38;4.65;;;7.30;99.90;;;;;;5094292;28;20040;-69
2023/04/19 06:27:15;;;;;;;8.75;5.00;;;7.30;99.90;;;;;;5115224;27;20035;-69
2023/04/19 06:29:41;;;;;;;9.02;4.00;;;7.30;99.90;;;;;;5097632;28;20126;-69
2023/04/19 06:32:06;;;;;;;8.98;4.43;;;7.30;99.90;;;;;;5111515;28;20138;-69
2023/04/19 06:34:32;;;;;;;7.63;3.33;;;7.40;99.90;;;;;;5115058;28;20035;-69
2023/04/19 06:36:58;;;;;;;7.93;4.32;;;7.50;99.90;;;;;;5106841;27;20039;-69
2023/04/19 06:39:23;;;;;;;7.05;3.80;;;7.50;99.90;;;;;;5097263;28;20040;-69
2023/04/19 06:41:49;;;;;;;8.02;3.45;;;7.60;99.90;;;;;;5097984;28;20132;-69
2023/04/19 06:44:14;;;;;;;7.22;3.80;;;7.80;99.90;;;;;;5097012;28;20426;-69
2023/04/19 06:46:40;;;;;;;6.63;3.58;;;7.80;99.90;;;;;;5104823;28;20032;-69
2023/04/19 06:49:06;;;;;;;7.85;3.78;;;7.90;99.90;;;;;;5096743;28;20449;-69
2023/04/19 06:51:32;;;;;;;10.45;3.78;;;7.90;99.90;;;;;;5113900;28;20399;-69
2023/04/19 06:53:58;;;;;;;8.13;4.22;;;8.00;99.90;;;;;;5093716;28;20054;-69
2023/04/19 06:56:48;;;;;;;8.93;3.72;;;8.10;99.90;;;;;;5096925;28;20047;-69
2023/04/19 06:59:19;;;;;;;8.07;3.63;;;8.20;99.90;;;;;;5112243;28;20070;-69
2023/04/19 07:01:46;;;;;;;7.72;3.90;;;8.30;99.90;;;;;;5101329;28;20044;-69
2023/04/19 07:04:12;;;;;;;7.47;4.22;;;8.30;99.90;;;;;;5090211;28;20086;-69
2023/04/19 07:06:38;;;;;;;7.25;3.80;;;8.30;99.90;;;;;;5113959;27;20468;-69
2023/04/19 07:09:06;;;;;;;7.65;3.72;;;8.50;99.90;;;;;;5097314;28;20096;-69
2023/04/19 07:11:32;;;;;;;6.15;3.50;;;8.60;99.90;;;;;;5113883;28;20085;-70
2023/04/19 07:13:59;;;;;;;9.05;3.40;;;8.60;99.90;;;;;;5097287;28;20040;-70
2023/04/19 07:16:25;;;;;;;7.18;3.20;;;8.70;99.90;;;;;;5096057;28;20072;-72
2023/04/19 07:18:51;;;;;;;6.57;3.03;;;8.80;99.90;;;;;;5096615;28;20035;-74
2023/04/19 07:21:16;;;;;;;6.40;3.13;;;8.90;99.90;;;;;;5097099;28;20089;-69
2023/04/19 07:23:42;;;;;;;8.23;3.10;;;8.90;99.90;;;;;;5114621;27;20047;-69
2023/04/19 07:26:08;;;;;;;8.95;3.35;;;8.90;99.90;;;;;;5096924;28;20086;-69
2023/04/19 07:28:33;;;;;;;6.25;2.90;;;9.00;99.90;;;;;;5096696;28;20039;-69
2023/04/19 07:30:59;;;;;;;8.23;3.22;;;9.00;99.90;;;;;;5087289;28;20042;-69
2023/04/19 07:33:26;;;;;;;6.68;2.97;;;9.20;99.90;;;;;;5092537;28;20407;-69
2023/04/19 07:35:52;;;;;;;6.13;2.72;;;9.20;99.90;;;;;;5092114;28;20046;-69
2023/04/19 07:38:18;;;;;;;6.25;3.00;;;9.30;99.90;;;;;;5097595;28;20451;-69
2023/04/19 07:40:44;;;;;;;6.68;2.95;;;9.30;99.90;;;;;;5102628;28;20122;-69
2023/04/19 07:43:10;;;;;;;7.88;3.15;;;9.20;99.90;;;;;;5108811;28;20081;-69
2023/04/19 07:45:35;;;;;;;5.75;3.10;;;9.40;99.90;;;;;;5092251;28;20028;-69
2023/04/19 07:48:01;;;;;;;4.93;2.58;;;9.40;99.90;;;;;;5095948;28;20032;-69
2023/04/19 07:50:27;;;;;;;8.15;3.33;;;9.50;99.90;;;;;;5109210;28;20044;-69
2023/04/19 07:52:53;;;;;;;6.63;2.80;;;9.60;99.90;;;;;;5095693;28;20032;-69
2023/04/19 07:55:19;;;;;;;6.85;3.10;;;9.70;99.90;;;;;;5103781;28;20088;-70
2023/04/19 07:57:47;;;;;;;5.25;2.95;;;9.80;99.90;;;;;;5090813;28;20047;-69
2023/04/19 08:00:17;;;;;;;5.53;2.60;;;9.80;99.90;;;;;;5110677;28;20112;-69
2023/04/19 08:02:44;;;;;;;5.50;2.60;;;9.90;99.90;;;;;;5095521;28;20187;-69
2023/04/19 08:05:10;;;;;;;6.55;2.60;;;10.00;99.90;;;;;;5105982;28;20496;-69
2023/04/19 08:07:35;;;;;;;6.65;3.10;;;10.10;99.90;;;;;;5093313;28;20032;-69
2023/04/19 08:10:01;;;;;;;7.78;3.15;;;10.20;99.90;;;;;;5100179;28;20431;-69
2023/04/19 08:12:26;;;;;;;6.85;2.92;;;10.20;99.90;;;;;;5108564;28;20031;-69
2023/04/19 08:14:52;;;;;;;5.63;2.63;;;10.30;99.90;;;;;;5108970;28;20043;-69
2023/04/19 08:17:20;;;;;;;6.68;2.85;;;10.50;99.90;;;;;;5095353;28;20044;-69
2023/04/19 08:19:48;;;;;;;6.20;2.80;;;10.40;99.90;;;;;;5094329;28;20491;-68
2023/04/19 08:22:15;;;;;;;5.32;2.70;;;10.50;99.90;;;;;;5110491;28;20085;-69
2023/04/19 08:24:41;;;;;;;8.98;3.25;;;10.60;99.90;;;;;;5085652;28;20036;-69
2023/04/19 08:27:08;;;;;;;5.13;2.55;;;10.70;99.90;;;;;;5074783;28;20040;-69
2023/04/19 08:29:34;;;;;;;6.13;2.55;;;10.80;99.90;;;;;;5074946;28;20085;-69
2023/04/19 08:32:00;;;;;;;5.95;2.40;;;10.80;99.90;;;;;;5105896;28;20503;-69
2023/04/19 08:34:26;;;;;;;4.00;1.80;;;10.90;99.90;;;;;;5078190;28;20040;-69
2023/04/19 08:36:52;;;;;;;7.28;2.60;;;11.10;99.90;;;;;;5099582;28;20042;-69
2023/04/19 08:39:17;;;;;;;4.88;2.30;;;11.10;99.70;;;;;;5093619;28;20035;-69
2023/04/19 08:41:43;;;;;;;4.47;2.30;;;11.10;99.10;;;;;;5103426;28;20126;-69
2023/04/19 08:44:11;;;;;;;4.60;2.20;;;11.20;99.90;;;;;;5078648;28;20491;-69
2023/04/19 08:46:36;;;;;;;6.78;2.53;;;11.30;99.90;;;;;;5097973;28;20035;-69
2023/04/19 08:49:04;;;;;;;4.78;2.15;;;11.40;98.80;;;;;;5084318;28;20116;-69
2023/04/19 08:51:31;;;;;;;3.80;2.00;;;11.40;97.20;;;;;;5074523;28;20039;-69
2023/04/19 08:53:58;;;;;;;3.67;1.85;;;11.40;96.80;;;;;;5074766;28;20380;-69
2023/04/19 08:56:25;;;;;;;4.47;2.17;;;11.40;98.20;;;;;;5091326;28;20412;-69
2023/04/19 08:58:51;;;;;;;7.13;2.33;;;11.60;97.40;;;;;;5110512;28;20043;-69
2023/04/19 09:01:16;;;;;;;5.15;2.38;;;11.60;96.00;;;;;;5110569;28;20047;-69
2023/04/19 09:03:45;;;;;;;5.10;2.20;;;11.70;97.70;;;;;;5106382;28;20036;-69
2023/04/19 09:06:11;;;;;;;4.70;2.10;;;11.80;98.10;;;;;;5095658;28;20032;-69
2023/04/19 09:08:38;;;;;;;5.22;2.05;;;11.70;94.70;;;;;;5103652;28;20047;-69
2023/04/19 09:11:03;;;;;;;4.05;1.77;;;11.70;92.00;;;;;;5090757;28;20558;-69
2023/04/19 09:13:30;;;;;;;3.67;1.80;;;11.90;94.90;;;;;;5077882;28;20123;-69
2023/04/19 09:15:56;;;;;;;6.13;2.45;;;11.80;87.20;;;;;;5105326;28;20039;-69
2023/04/19 09:18:23;;;;;;;4.28;2.05;;;11.90;90.10;;;;;;5102813;28;20499;-69
2023/04/19 09:20:55;;;;;;;3.65;2.03;;;11.90;93.20;;;;;;5092347;28;20495;-69
2023/04/19 09:23:24;;;;;;;5.95;2.28;;;12.10;90.00;;;;;;5096932;28;20446;-69
2023/04/19 09:26:03;;;;;;;3.65;1.55;;;12.00;83.60;;;;;;5095835;28;20527;-69
2023/04/19 09:28:30;;;;;;;5.90;1.90;;;12.10;90.10;;;;;;5091535;28;20039;-69
2023/04/19 09:30:56;;;;;;;4.38;2.08;;;12.10;80.70;;;;;;5104740;28;20036;-70
2023/04/19 09:33:38;;;;;;;5.15;1.83;;;12.30;87.50;;;;;;5105024;28;20063;-69
2023/04/19 09:36:04;;;;;;;3.88;1.60;;;12.50;86.00;;;;;;5106105;28;20044;-69
2023/04/19 09:38:44;;;;;;;3.55;1.70;;;12.60;90.80;;;;;;5089137;28;20039;-69
2023/04/19 09:41:10;;;;;;;4.65;1.90;;;12.80;89.20;;;;;;5095200;28;20044;-69
2023/04/19 09:43:36;;;;;;;4.63;2.08;;;12.90;85.20;;;;;;5115289;28;20040;-69
2023/04/19 09:46:01;;;;;;;4.30;1.70;;;12.90;83.10;;;;;;5098545;28;20040;-69
2023/04/19 09:48:27;;;;;;;5.50;2.00;;;13.00;91.10;;;;;;5093897;28;20484;-70
2023/04/19 09:50:54;;;;;;;4.80;1.70;;;13.10;86.50;;;;;;5106782;27;20032;-69
2023/04/19 09:53:21;;;;;;;6.63;1.83;;;13.20;85.30;;;;;;5080522;28;20101;-69
2023/04/19 09:55:46;;;;;;;7.53;1.92;;;13.20;88.50;;;;;;5101311;28;20114;-69
2023/04/19 09:58:13;;;;;;;3.08;1.52;;;13.40;84.80;;;;;;5096013;28;20048;-69
2023/04/19 10:00:40;;;;;;;4.00;1.50;;;13.40;79.90;;;;;;5094626;28;20492;-69
2023/04/19 10:03:08;;;;;;;3.05;1.55;;;13.40;80.00;;;;;;5094157;28;20092;-69
2023/04/19 10:05:38;;;;;;;5.88;1.58;;;13.60;79.40;;;;;;5107844;28;20098;-69
2023/04/19 10:08:10;;;;;;;4.15;1.50;;;13.70;74.70;;;;;;5103124;28;20036;-69
2023/04/19 10:10:38;;;;;;;4.68;1.95;;;13.70;76.20;;;;;;5099056;28;20390;-69
2023/04/19 10:13:06;;;;;;;5.00;1.55;;;13.60;72.30;;;;;;5104542;28;20119;-69
2023/04/19 10:15:35;;;;;;;4.50;1.50;;;13.60;71.50;;;;;;5095069;28;20047;-69
2023/04/19 10:18:02;;;;;;;3.17;1.52;;;13.70;74.70;;;;;;5095061;28;20044;-69
2023/04/19 10:20:48;;;;;;;4.15;1.50;;;13.80;74.80;;;;;;5079637;28;20032;-69
2023/04/19 10:23:14;;;;;;;2.88;1.60;;;13.60;69.70;;;;;;5102734;27;20403;-69
2023/04/19 10:25:45;;;;;;;2.38;1.30;;;13.70;66.70;;;;;;5102269;28;20032;-69
2023/04/19 10:28:10;;;;;;;3.78;1.40;;;13.70;69.60;;;;;;5094749;28;20043;-69
2023/04/19 10:30:56;;;;;;;3.60;1.50;;;13.80;74.30;;;;;;5122212;27;20407;-69
2023/04/19 10:33:35;;;;;;;4.00;1.45;;;13.70;66.50;;;;;;5077886;28;20047;-72
2023/04/19 10:36:01;;;;;;;3.90;1.30;;;13.60;69.20;;;;;;5078486;28;20057;-74
2023/04/19 10:38:42;;;;;;;2.83;1.45;;;13.80;70.90;;;;;;5094974;28;20098;-68
2023/04/19 10:41:11;;;;;;;4.35;1.55;;;13.90;76.00;;;;;;5098897;28;20047;-72
2023/04/19 10:43:37;;;;;;;3.63;1.52;;;13.80;71.90;;;;;;5077657;28;20040;-72
2023/04/19 10:46:07;;;;;;;3.05;1.50;;;13.90;76.70;;;;;;5094932;28;20462;-69
2023/04/19 10:48:37;;;;;;;2.78;1.50;;;14.10;77.90;;;;;;5110754;28;20036;-70
2023/04/19 10:51:13;;;;;;;2.00;1.08;;;14.10;78.00;;;;;;5097924;28;20073;-70
2023/04/19 10:53:50;;;;;;;3.72;1.38;;;14.30;74.10;;;;;;5115142;28;20036;-69
2023/04/19 10:56:19;;;;;;;2.28;1.30;;;14.20;72.80;;;;;;5113686;28;20100;-70
2023/04/19 10:59:00;;;;;;;3.17;1.20;;;14.20;70.00;;;;;;5107313;28;20100;-70
2023/04/19 11:01:43;;;;;;;1.83;1.10;;;14.30;67.70;;;;;;5105819;28;20044;-70
2023/04/19 11:04:18;;;;;;;2.63;1.13;;;14.30;68.80;;;;;;5113536;28;20071;-70
2023/04/19 11:06:52;;;;;;;2.90;1.35;;;14.30;65.40;;;;;;5093427;28;20035;-70
2023/04/19 11:09:25;;;;;;;3.17;1.45;;;14.30;69.00;;;;;;5084169;28;20035;-70
2023/04/19 11:11:52;;;;;;;2.60;1.35;;;14.30;69.00;;;;;;5097371;28;20040;-70
2023/04/19 11:14:20;;;;;;;2.00;1.30;;;14.40;73.60;;;;;;5099478;28;20070;-70
2023/04/19 11:16:46;;;;;;;3.53;1.60;;;14.40;73.40;;;;;;5078804;28;20032;-70
2023/04/19 11:19:18;;;;;;;2.60;1.50;;;14.40;73.10;;;;;;5095926;28;20040;-70
2023/04/19 11:21:48;;;;;;;4.65;1.45;;;14.50;71.20;;;;;;5111913;28;20429;-69
2023/04/19 11:24:17;;;;;;;2.53;1.35;;;14.30;72.50;;;;;;5113410;28;20118;-70
2023/04/19 11:26:49;;;;;;;3.95;1.50;;;14.20;69.60;;;;;;5097480;28;20031;-69
2023/04/19 11:29:15;;;;;;;;;;;14.20;74.40;;;;;;5097766;28;20430;-69
2023/04/19 11:31:45;;;;;;;5.60;1.50;;;14.30;76.10;;;;;;5095585;28;19916;-69
2023/04/19 11:34:11;;;;;;;4.28;1.60;;;14.40;73.60;;;;;;5077066;28;20044;-69
2023/04/19 11:36:47;;;;;;;2.13;1.33;;;14.40;74.30;;;;;;5096026;28;20046;-69
2023/04/19 11:39:13;;;;;;;5.95;1.95;;;14.40;72.10;;;;;;5082545;28;20043;-69
2023/04/19 11:41:38;;;;;;;3.88;1.58;;;14.20;64.20;;;;;;5093662;28;20075;-69
2023/04/19 11:44:12;;;;;;;6.15;1.90;;;14.30;68.10;;;;;;5109661;27;20083;-69
2023/04/19 11:46:38;;;;;;;4.05;1.67;;;14.20;69.00;;;;;;5093340;28;20036;-69
2023/04/19 11:49:03;;;;;;;4.00;1.90;;;14.20;72.80;;;;;;5093528;28;20097;-69
2023/04/19 11:51:30;;;;;;;5.03;2.30;;;14.20;71.40;;;;;;5113097;28;20042;-69
2023/04/19 11:53:55;;;;;;;6.40;2.28;;;14.20;74.20;;;;;;5084374;28;20042;-69
2023/04/19 11:56:21;;;;;;;5.43;2.50;;;14.40;74.30;;;;;;5105512;28;20138;-70
2023/04/19 11:58:47;;;;;;;5.53;2.45;;;14.30;70.80;;;;;;5093618;28;20040;-70
2023/04/19 12:01:21;;;;;;;4.35;2.33;;;14.30;70.40;;;;;;5129922;27;20107;-70
2023/04/19 12:03:52;;;;;;;6.35;2.30;;;14.30;72.50;;;;;;5111704;27;20071;-69
2023/04/19 12:06:21;;;;;;;6.13;2.50;;;14.30;69.30;;;;;;5097170;28;20036;-69
2023/04/19 12:08:49;;;;;;;4.03;2.08;;;14.30;70.70;;;;;;5106452;28;20123;-70
2023/04/19 12:11:17;;;;;;;5.22;2.70;;;14.40;70.70;;;;;;5111073;28;20071;-69
2023/04/19 12:13:43;;;;;;;4.65;2.15;;;14.30;72.60;;;;;;5104375;28;20399;-69
2023/04/19 12:16:10;;;;;;;4.53;1.70;;;14.40;73.40;;;;;;5102455;28;20399;-69
2023/04/19 12:18:47;;;;;;;6.97;2.95;;;14.50;72.70;;;;;;5113082;28;20046;-69
2023/04/19 12:21:24;;;;;;;7.20;2.83;;;14.40;70.40;;;;;;5103902;27;20540;-69
2023/04/19 12:23:56;;;;;;;4.53;2.00;;;14.20;72.60;;;;;;5112926;28;20035;-69
2023/04/19 12:26:22;;;;;;;6.03;2.92;;;14.40;77.50;;;;;;5113103;28;20120;-69
2023/04/19 12:28:47;;;;;;;6.22;2.80;;;14.40;79.10;;;;;;5103119;28;20050;-69
2023/04/19 12:31:13;;;;;;;7.20;2.80;;;14.40;78.90;;;;;;5079508;28;20032;-68
2023/04/19 12:33:39;;;;;;;5.93;2.58;;;14.50;77.00;;;;;;5092072;28;20438;-69
2023/04/19 12:36:05;;;;;;;6.85;3.00;;;14.40;75.70;;;;;;5109512;28;20043;-69
2023/04/19 12:38:30;;;;;;;5.22;2.67;;;14.30;81.60;;;;;;5075606;28;20122;-69
2023/04/19 12:40:56;;;;;;;5.70;2.47;;;14.30;81.60;;;;;;5118771;27;20043;-69
2023/04/19 12:43:21;;;;;;;4.93;2.72;;;14.40;81.20;;;;;;5113592;28;20050;-69
2023/04/19 12:45:47;;;;;;;7.40;2.80;;;14.30;80.20;;;;;;5094812;28;20119;-69